createdAt,value
2017-12-08T00:02:29.986Z,97587.41
2017-12-08T00:05:03.695Z,97587.48
2017-12-08T00:07:50.090Z,97573.89
2017-12-08T00:10:26.827Z,97576.05
2017-12-08T00:15:53.872Z,97565.22
2017-12-08T00:18:28.867Z,97560.23
2017-12-08T00:21:02.045Z,97560.85
2017-12-08T00:23:36.047Z,97554.33
2017-12-08T00:26:07.872Z,97545.38
2017-12-08T00:28:39.222Z,97547.33
2017-12-08T00:31:11.259Z,97541.77
2017-12-08T00:33:43.030Z,97543.80
2017-12-08T00:36:16.219Z,97536.56
2017-12-08T00:38:49.186Z,97534.83
2017-12-08T00:41:27.417Z,97533.28
2017-12-08T00:44:05.944Z,97529.17
2017-12-08T00:46:41.241Z,97516.38
2017-12-08T00:49:13.913Z,97518.22
2017-12-08T00:51:44.831Z,97506.13
2017-12-08T00:54:20.177Z,97505.77
2017-12-08T00:56:52.233Z,97503.84
2017-12-08T00:59:32.463Z,97503.48
2017-12-08T01:04:43.632Z,97495.44
2017-12-08T01:07:15.075Z,97498.77
2017-12-08T01:09:50.177Z,97497.83
2017-12-08T01:12:26.000Z,97489.88
2017-12-08T01:14:58.514Z,97487.52
2017-12-08T01:17:30.931Z,97502.05
2017-12-08T01:20:05.998Z,97503.85
2017-12-08T01:22:36.152Z,97491.08
2017-12-08T01:25:13.216Z,97481.61
2017-12-08T01:27:46.140Z,97472.59
2017-12-08T01:30:18.951Z,97455.83
2017-12-08T01:33:02.021Z,97449.98
2017-12-08T01:38:29.782Z,97442.72
2017-12-08T01:41:01.911Z,97438.88
2017-12-08T01:46:17.364Z,97443.88
2017-12-08T01:48:48.037Z,97445.75
2017-12-08T01:51:21.759Z,97431.13
2017-12-08T01:53:59.971Z,97423.22
2017-12-08T01:56:35.042Z,97417.86
2017-12-08T01:59:08.222Z,97414.52
2017-12-08T02:01:39.627Z,97409.06
2017-12-08T02:04:19.176Z,97396.30
2017-12-08T02:06:54.955Z,97387.60
2017-12-08T02:09:26.594Z,97389.32
2017-12-08T02:11:59.886Z,97384.23
2017-12-08T02:14:34.181Z,97381.69
2017-12-08T02:17:04.959Z,97378.16
2017-12-08T02:19:37.296Z,97375.91
2017-12-08T02:22:08.995Z,97368.52
2017-12-08T02:24:44.271Z,97365.88
2017-12-08T02:27:15.667Z,97360.91
2017-12-08T02:29:53.420Z,97361.03
2017-12-08T02:32:27.212Z,97353.39
2017-12-08T02:35:01.746Z,97354.39
2017-12-08T02:37:34.511Z,97361.72
2017-12-08T02:40:07.806Z,97345.11
2017-12-08T02:42:39.360Z,97334.10
2017-12-08T02:45:14.752Z,97339.17
2017-12-08T02:47:53.457Z,97328.25
2017-12-08T02:50:25.139Z,97322.83
2017-12-08T02:53:04.679Z,97323.84
2017-12-08T02:55:38.003Z,97324.72
2017-12-08T02:58:18.090Z,97316.00
2017-12-08T03:03:51.813Z,97313.69
2017-12-08T03:06:25.023Z,97303.05
2017-12-08T03:08:57.683Z,97303.31
2017-12-08T03:11:45.411Z,97305.97
2017-12-08T03:14:22.727Z,97298.73
2017-12-08T03:16:58.105Z,97291.23
2017-12-08T03:19:27.867Z,97294.20
2017-12-08T03:22:06.890Z,97287.26
2017-12-08T03:24:37.797Z,97291.56
2017-12-08T03:27:11.539Z,97290.65
2017-12-08T03:29:43.690Z,97282.66
2017-12-08T03:32:17.643Z,97277.19
2017-12-08T03:34:50.161Z,97267.89
2017-12-08T03:37:22.521Z,97262.88
2017-12-08T03:40:00.240Z,97285.25
2017-12-08T03:42:43.950Z,97271.91
2017-12-08T03:45:24.575Z,97272.03
2017-12-08T03:47:58.131Z,97262.69
2017-12-08T03:50:29.814Z,97250.09
2017-12-08T03:53:05.210Z,97257.09
2017-12-08T03:55:41.383Z,97256.39
2017-12-08T03:58:12.014Z,97255.53
2017-12-08T04:00:44.825Z,97265.88
2017-12-08T04:03:27.525Z,97256.60
2017-12-08T04:05:58.831Z,97244.66
2017-12-08T04:08:31.909Z,97249.87
2017-12-08T04:11:10.895Z,97242.97
2017-12-08T04:13:40.638Z,97245.53
2017-12-08T04:16:12.303Z,97237.61
2017-12-08T04:18:42.655Z,97230.87
2017-12-08T04:21:13.974Z,97221.98
2017-12-08T04:23:44.232Z,97213.47
2017-12-08T05:31:42.696Z,97098.00
2017-12-08T05:42:47.899Z,97084.38
2017-12-08T05:49:57.408Z,97080.48
2017-12-08T05:56:57.427Z,97068.97
2017-12-08T13:50:37.188Z,96743.19
2017-12-08T13:53:25.760Z,96744.77
2017-12-08T13:56:14.647Z,96746.64
2017-12-08T13:58:45.697Z,96743.33
2017-12-08T14:01:18.116Z,96736.65
2017-12-08T14:03:48.485Z,96734.64
2017-12-08T14:06:18.598Z,96738.39
2017-12-08T14:08:48.880Z,96744.90
2017-12-08T14:11:18.627Z,96738.59
2017-12-08T14:13:48.737Z,96738.86
2017-12-08T14:16:24.459Z,96737.99
2017-12-08T14:18:56.054Z,96746.91
2017-12-08T14:21:26.630Z,96749.02
2017-12-08T14:23:58.113Z,96745.95
